Date,TemperatureHighF,TemperatureAvgF,TemperatureLowF,DewpointHighF,DewpointAvgF,DewpointLowF,HumidityHigh,HumidityAvg,HumidityLow,PressureMaxIn,PressureMinIn,WindSpeedMaxMPH,WindSpeedAvgMPH,GustSpeedMaxMPH,PrecipitationSumIn
2013-1-1,37.1,32.4,24.0,35.8,30.5,20.5,96,93,85,30.25,30.04,19,10,0,0.00
2013-1-2,33.9,25.1,19.3,23.3,18.8,15.6,89,78,50,30.31,30.22,14,4,0,0.00
2013-1-3,44.2,28.5,20.3,30.8,23.3,16.8,93,81,57,30.45,30.25,17,7,0,0.00
2013-1-4,44.3,32.2,24.7,32.3,27.4,22.6,94,83,57,30.50,30.38,21,12,0,0.00
2013-1-5,43.9,35.9,25.3,34.3,30.2,23.3,95,80,67,30.40,30.21,24,14,0,0.00
2013-1-6,43.4,34.6,24.4,35.6,29.8,22.4,94,83,63,30.42,30.15,30,11,0,0.00
2013-1-7,49.2,30.6,21.5,31.9,25.0,19.0,94,81,47,30.50,30.22,14,7,0,0.00
2013-1-8,56.6,39.9,25.8,36.7,31.1,22.8,92,73,45,30.31,30.18,22,14,0,0.00
2013-1-9,56.8,50.0,44.5,48.4,42.9,36.2,93,77,63,30.44,30.23,23,10,0,0.02
2013-1-10,64.9,54.2,44.4,61.5,51.9,37.9,96,92,65,30.43,29.85,38,14,0,0.72
2013-1-11,63.1,57.6,53.2,58.0,52.3,48.1,92,83,68,30.00,29.86,33,18,0,0.05
2013-1-12,68.8,63.6,57.8,65.1,61.5,54.3,96,93,83,29.95,29.67,43,15,0,2.17
2013-1-13,57.6,34.4,25.1,55.3,32.5,22.0,95,93,87,30.32,29.73,31,8,0,2.04
2013-1-14,28.2,24.7,20.6,22.8,20.5,16.7,90,84,77,30.45,30.32,0,0,0,0.00
2013-1-15,33.1,27.3,22.2,27.3,23.6,19.8,92,86,71,30.35,30.09,0,0,0,0.00
2013-1-16,33.1,30.8,28.7,27.9,26.9,26.0,92,85,78,30.17,30.07,11,3,0,0.00
2013-1-17,46.8,34.1,26.0,36.8,28.7,22.9,92,81,66,30.51,30.11,29,12,0,0.11
2013-1-18,49.4,35.6,22.7,32.5,26.6,20.5,94,71,49,30.58,30.29,32,11,0,0.01
2013-1-19,58.9,47.1,37.9,37.3,33.2,27.1,71,59,44,30.31,30.05,39,22,0,0.00
2013-1-20,47.4,39.3,28.8,36.2,25.4,14.2,86,60,27,30.32,30.12,27,11,0,0.00
2013-1-21,36.4,28.3,22.9,19.9,14.5,6.2,74,57,42,30.37,30.23,25,12,0,0.00
2013-1-22,25.9,22.3,17.7,12.7,4.3,-1.0,69,46,32,30.49,30.36,18,5,0,0.00
2013-1-23,47.7,31.7,17.7,31.9,21.3,9.6,88,67,47,30.39,30.15,19,10,0,0.00
2013-1-24,33.1,29.1,21.7,27.7,14.7,9.6,85,55,41,30.56,30.26,35,15,0,0.00
2013-1-25,41.2,32.3,27.2,29.4,24.8,9.2,91,75,41,30.26,30.12,22,8,0,0.04
2013-1-26,47.2,35.1,26.6,29.3,24.9,20.6,91,68,42,30.39,30.25,19,10,0,0.00
2013-1-27,51.6,38.4,27.6,45.9,34.9,20.8,95,87,70,30.34,30.09,33,11,0,0.02
2013-1-28,62.2,57.7,51.6,58.6,53.6,45.6,94,86,73,30.12,30.01,39,20,0,0.10
2013-1-29,70.5,63.9,53.7,62.8,58.5,51.7,93,83,73,30.02,29.41,59,24,0,0.49
2013-1-30,56.5,46.2,32.8,51.9,40.7,21.4,96,82,63,29.94,29.41,40,18,0,0.72
2013-1-31,42.5,33.1,20.8,32.4,23.6,9.7,91,68,52,30.34,29.93,33,16,0,0.02
2013-2-1,29.3,21.5,13.4,17.2,10.2,3.9,70,61,47,30.55,30.33,31,8,0,0.01
2013-2-2,42.2,34.2,25.6,31.1,24.6,16.8,81,68,55,30.33,30.09,25,12,0,0.00
2013-2-3,44.9,36.2,26.6,32.1,26.6,21.7,84,69,44,30.19,30.00,30,13,0,0.00
2013-2-4,48.8,39.4,27.8,39.4,32.3,22.7,91,77,47,30.10,29.88,34,16,0,0.01
2013-2-5,55.7,41.7,33.0,42.8,36.2,30.3,94,82,54,30.09,29.92,22,8,0,0.00
2013-2-6,52.8,42.0,31.2,37.7,32.0,28.5,94,69,42,30.27,30.08,19,10,0,0.00
2013-2-7,65.8,51.7,35.5,53.6,43.5,31.2,94,74,55,30.10,29.85,30,11,0,0.34
2013-2-8,48.9,40.2,33.7,47.0,34.3,27.5,93,80,61,30.37,29.92,31,14,0,0.00
2013-2-9,50.1,39.7,31.9,37.9,30.6,26.4,82,71,49,30.38,30.05,23,10,0,0.00
2013-2-10,56.2,51.3,43.0,53.4,45.5,34.3,92,81,60,30.07,29.69,49,20,0,0.39
2013-2-11,55.6,47.1,37.5,51.8,33.5,29.4,87,60,44,30.16,29.85,33,16,0,0.00
2013-2-12,49.9,41.5,29.8,36.9,31.4,27.5,95,69,47,30.17,29.85,18,9,0,0.01
2013-2-13,47.0,40.2,36.5,39.2,36.1,34.4,94,86,68,29.96,29.81,27,12,0,0.19
2013-2-14,59.6,46.6,37.2,43.1,38.2,34.0,91,74,52,30.04,29.91,28,15,0,0.00
2013-2-15,47.0,39.4,29.3,34.6,27.1,16.5,88,63,37,30.24,30.02,26,11,0,0.00
2013-2-16,39.2,30.8,25.4,21.6,16.0,10.0,80,56,31,30.25,30.17,24,11,0,0.00
2013-2-17,48.9,35.1,20.6,27.9,21.6,11.9,86,60,37,30.27,30.05,26,11,0,0.00
2013-2-18,60.7,48.5,39.0,47.4,38.6,24.7,94,70,41,30.07,29.69,50,24,0,0.78
2013-2-19,45.2,37.8,29.1,37.9,22.8,12.9,86,57,29,30.29,29.85,32,16,0,0.00
2013-2-20,33.6,27.9,23.6,19.3,16.5,13.2,75,62,49,30.38,30.26,15,8,0,0.00
2013-2-21,36.4,30.6,25.5,35.1,24.5,17.5,95,79,58,30.30,29.82,37,9,0,1.23
2013-2-22,44.0,38.9,33.3,38.7,35.0,27.1,95,86,77,30.09,29.82,23,12,0,0.01
2013-2-23,45.7,34.6,26.5,29.3,26.2,23.3,90,73,50,30.08,29.97,18,6,0,0.00
2013-2-24,28.5,1.0,27.8,24.8,-95.6,-99.9,87,3,86,30.16,30.01,5,-964,0,0.00
2013-2-25,-200.0,0.0,200.0,-99.9,-99.9,-99.9,0,0,100,30.03,29.44,0,-999,0,0.00
2013-2-26,-200.0,0.0,200.0,-99.9,-99.9,-99.9,0,0,100,29.67,29.31,0,-999,0,0.00
2013-2-27,-200.0,0.0,200.0,-99.9,-99.9,-99.9,0,0,100,29.89,29.66,0,-999,0,0.00
2013-2-28,-200.0,0.0,200.0,-99.9,-99.9,-99.9,0,0,100,30.08,29.87,0,-999,0,0.00
2013-3-1,-200.0,0.0,200.0,-99.9,-99.9,-99.9,0,0,100,30.11,30.02,0,-999,0,0.00
2013-3-2,-200.0,0.0,200.0,-99.9,-99.9,-99.9,0,0,100,30.20,30.07,0,-999,0,0.00
2013-3-3,-200.0,0.0,200.0,-99.9,-99.9,-99.9,0,0,100,30.19,30.06,0,-999,0,0.00
2013-3-4,-200.0,0.0,200.0,-99.9,-99.9,-99.9,0,0,100,30.09,29.75,0,-999,0,0.00
2013-3-5,-200.0,0.0,200.0,-99.9,-99.9,-99.9,0,0,100,30.06,29.72,0,-999,0,0.00
2013-3-6,-200.0,0.0,200.0,-99.9,-99.9,-99.9,0,0,100,30.32,30.04,0,-999,0,0.00
2013-3-7,-200.0,0.0,200.0,-99.9,-99.9,-99.9,0,0,100,30.41,30.29,0,-999,0,0.00
2013-3-8,56.4,19.9,43.1,33.7,-48.0,-99.9,62,19,34,30.43,30.22,21,-592,22,0.00
2013-3-9,69.4,53.3,41.4,38.2,34.4,30.7,68,51,30,30.25,29.93,33,12,33,0.00
2013-3-10,67.1,57.8,50.0,54.9,45.6,37.1,95,66,48,29.94,29.69,50,19,51,0.36
2013-3-11,51.6,42.0,37.9,50.2,36.8,30.8,95,82,74,30.02,29.72,28,14,28,0.01
2013-3-12,52.4,41.0,28.0,32.3,28.5,22.6,91,64,40,30.19,30.00,26,10,26,0.00
2013-3-13,45.5,37.4,28.4,28.7,22.4,18.9,78,56,38,30.43,30.18,32,14,32,0.00
2013-3-14,46.3,35.2,25.8,36.0,26.8,20.8,89,73,43,30.43,30.14,21,8,21,0.02
2013-3-15,74.8,55.3,31.1,52.2,42.6,28.0,90,65,42,30.15,29.76,33,16,33,0.00
2013-3-16,70.0,60.0,44.5,52.9,46.7,37.6,78,62,52,29.98,29.72,41,19,41,0.00
2013-3-17,44.5,41.1,38.2,41.9,38.5,35.8,95,90,78,30.06,29.70,30,14,30,0.72
2013-3-18,51.7,44.8,38.3,46.2,41.6,35.9,96,89,70,30.00,29.64,33,11,33,1.28
2013-3-19,53.6,42.4,29.9,37.1,25.8,17.1,89,56,24,30.22,29.99,21,9,21,0.00
2013-3-20,45.6,37.8,28.4,32.0,24.3,16.2,78,59,42,30.23,30.08,31,14,31,0.00
2013-3-21,41.6,32.4,21.6,22.9,17.4,11.5,82,56,36,30.13,29.98,19,7,19,0.00
2013-3-22,42.8,38.5,34.2,27.7,24.3,20.8,63,57,49,30.05,29.96,17,9,17,0.00
2013-3-23,55.9,46.7,39.8,43.4,33.4,26.8,93,61,46,30.00,29.73,26,11,26,0.10
2013-3-24,45.3,39.7,33.2,42.9,36.8,29.3,94,89,82,29.77,29.43,37,16,37,0.10
2013-3-25,38.4,34.4,32.3,31.0,28.4,25.8,89,79,67,30.18,29.76,35,18,35,0.00
2013-3-26,43.2,36.0,29.2,31.4,27.9,24.7,91,74,51,30.37,30.17,18,9,18,0.01
2013-3-27,51.1,38.9,25.4,34.7,27.2,22.5,91,66,41,30.43,30.31,15,4,15,0.00
2013-3-28,59.7,49.0,39.6,41.8,34.4,30.4,77,59,39,30.39,30.24,19,7,19,0.00
2013-3-29,56.0,49.1,43.6,50.3,45.1,37.8,95,86,66,30.27,30.16,33,8,33,0.86
2013-3-30,57.7,49.1,41.3,49.0,45.8,39.4,96,89,68,30.21,29.90,16,7,16,0.47
2013-3-31,64.7,54.7,49.0,52.8,49.2,46.1,96,83,55,29.96,29.85,21,7,21,0.00
2013-4-1,56.8,49.2,38.9,47.4,35.1,26.0,92,60,37,30.20,29.89,26,13,26,0.00
2013-4-2,48.6,41.7,35.4,30.6,24.6,19.3,78,52,33,30.33,30.18,15,7,15,0.00
2013-4-3,53.9,44.6,32.6,26.6,24.2,20.4,73,47,30,30.35,30.19,26,12,26,0.00
2013-4-4,56.8,47.8,41.7,40.7,30.9,23.1,87,53,44,30.20,30.00,19,7,19,0.00
2013-4-5,72.8,54.5,35.4,43.1,36.8,30.5,91,57,28,30.14,30.03,17,9,17,0.00
2013-4-6,75.7,60.9,43.2,44.3,41.2,36.7,85,51,29,30.09,29.86,36,16,36,0.00
2013-4-7,73.8,65.5,60.0,58.1,51.4,42.3,76,61,49,29.97,29.88,31,17,31,0.00
2013-4-8,74.8,67.0,59.4,58.9,55.5,50.4,78,67,55,29.92,29.83,40,17,40,0.00
2013-4-9,81.3,70.3,59.1,65.2,60.9,53.6,88,73,56,30.00,29.84,35,16,35,0.00
2013-4-10,85.8,76.8,65.2,67.5,64.6,61.2,91,67,52,29.91,29.65,37,20,37,0.13
2013-4-11,65.5,56.2,45.1,64.0,53.7,37.1,95,92,74,29.75,29.57,40,13,40,1.32
2013-4-12,61.3,48.5,37.9,43.1,37.5,33.0,89,67,41,30.04,29.75,35,15,36,0.00
2013-4-13,68.5,51.2,35.2,47.7,38.8,32.0,90,65,39,30.10,29.94,15,6,15,0.00
2013-4-14,75.7,61.1,45.2,53.6,47.5,42.0,92,64,38,29.95,29.75,42,13,42,0.00
2013-4-15,82.5,69.5,57.2,62.6,57.5,51.0,85,67,48,29.92,29.80,30,14,30,0.00
2013-4-16,83.7,72.4,66.2,72.6,66.2,59.0,92,81,63,30.03,29.87,37,13,37,0.08
2013-4-17,85.8,74.0,61.6,71.5,65.9,59.9,95,77,57,30.06,29.80,40,12,40,0.00
2013-4-18,81.2,71.4,45.1,66.8,62.6,43.1,95,75,56,29.82,29.58,50,23,50,1.61
2013-4-19,51.5,44.3,37.8,42.9,35.0,31.4,93,70,51,30.09,29.71,31,15,31,0.00
2013-4-20,63.4,49.6,35.1,44.6,35.4,31.6,92,62,35,30.32,30.09,18,7,18,0.00
2013-4-21,66.7,53.6,40.6,40.8,35.4,31.3,75,53,29,30.41,30.24,21,12,21,0.00
2013-4-22,76.1,59.9,42.0,51.5,44.9,35.0,86,60,37,30.26,30.02,26,12,26,0.00
2013-4-23,74.3,65.1,53.1,61.4,54.6,46.5,81,69,57,30.05,29.83,41,19,41,0.00
2013-4-24,57.8,45.1,37.9,51.5,40.0,35.6,94,83,59,30.29,29.88,32,10,32,0.25
2013-4-25,67.5,51.0,34.7,47.2,39.6,32.9,94,69,38,30.37,30.27,22,10,22,0.00
2013-4-26,52.0,49.5,44.9,49.6,46.1,41.2,95,88,73,30.43,30.25,23,8,23,0.48
2013-4-27,59.7,54.7,49.6,58.3,53.5,48.2,96,96,93,30.31,29.88,30,8,30,0.78
2013-4-28,59.7,56.6,52.1,57.5,53.9,49.6,96,91,82,29.95,29.86,21,7,21,0.00
2013-4-29,76.9,61.8,48.1,60.4,54.5,46.7,96,79,52,30.00,29.86,19,10,19,0.00
2013-4-30,85.3,68.1,52.0,62.5,56.4,49.9,95,70,39,29.97,29.87,22,11,22,0.00
2013-5-1,85.5,66.8,54.0,69.5,60.8,52.2,96,83,50,30.07,29.96,29,8,29,0.23
2013-5-2,74.8,67.0,58.4,63.8,59.9,56.3,96,79,59,30.13,30.00,27,7,27,0.10
2013-5-3,72.8,59.6,42.7,61.9,55.4,41.1,96,87,64,30.01,29.74,33,11,33,0.51
2013-5-4,55.5,46.2,40.9,44.0,41.1,38.5,95,83,59,29.98,29.85,18,7,18,0.30
2013-5-5,59.8,51.3,42.2,53.4,48.0,40.3,95,89,76,29.95,29.83,16,7,16,0.03
2013-5-6,67.8,57.8,52.6,59.0,54.5,50.6,95,89,71,29.92,29.81,23,11,23,0.01
2013-5-7,75.2,62.5,50.6,61.8,56.4,49.2,96,82,56,30.00,29.90,15,8,15,0.00
2013-5-8,81.9,69.6,56.0,62.2,57.6,54.2,95,69,41,30.03,29.94,19,10,19,0.00
2013-5-9,81.5,72.3,58.5,66.4,60.9,56.3,94,69,49,30.02,29.88,33,15,33,0.00
2013-5-10,75.6,67.5,60.9,68.7,62.7,57.2,96,85,67,29.95,29.80,32,12,32,0.17
2013-5-11,73.8,61.0,52.6,58.7,52.2,39.4,95,74,48,30.11,29.93,29,10,29,0.01
2013-5-12,66.0,53.9,40.9,43.6,38.2,30.8,93,60,30,30.21,30.10,21,9,21,0.00
2013-5-13,72.9,57.3,40.4,50.7,41.4,33.8,95,61,29,30.25,30.10,19,6,19,0.00
2013-5-14,86.3,71.0,49.7,61.8,55.6,44.0,86,60,41,30.11,29.89,38,20,38,0.00
2013-5-15,85.3,75.9,66.8,64.5,58.4,53.1,69,55,44,30.02,29.89,31,18,31,0.00
2013-5-16,83.0,73.9,66.5,67.7,61.5,54.6,85,66,51,29.96,29.88,25,11,25,0.00
2013-5-17,75.2,68.6,63.2,67.9,64.0,59.8,94,86,74,29.97,29.89,21,8,21,0.02
2013-5-18,84.7,72.9,65.7,70.9,66.5,63.6,94,81,59,29.98,29.89,12,3,12,0.00
2013-5-19,90.8,78.9,67.4,76.3,70.1,65.1,96,76,53,29.91,29.80,34,14,34,0.00
2013-5-20,89.7,79.5,70.5,72.3,69.7,67.3,91,73,53,29.93,29.77,33,16,33,0.00
2013-5-21,79.0,70.2,65.0,70.3,65.8,63.0,95,87,68,29.89,29.76,55,16,55,1.08
2013-5-22,79.1,70.0,63.5,65.7,63.0,60.3,96,80,57,29.83,29.71,33,16,33,0.15
2013-5-23,74.5,66.0,56.4,63.2,57.4,49.3,94,75,57,30.15,29.82,28,13,28,0.00
2013-5-24,72.8,59.4,47.2,52.3,47.3,42.8,91,67,36,30.34,30.15,22,8,22,0.00
2013-5-25,78.5,63.3,47.3,59.0,52.3,45.5,96,71,40,30.33,30.13,16,7,16,0.00
2013-5-26,86.2,71.5,56.6,66.6,60.0,54.3,94,69,43,30.19,30.05,19,8,19,0.00
2013-5-27,86.0,74.9,59.6,70.0,62.2,56.4,91,66,49,30.06,29.89,34,18,34,0.00
2013-5-28,88.2,78.5,66.9,71.1,65.7,58.7,83,66,49,30.00,29.90,37,19,37,0.00
2013-5-29,90.3,78.0,61.9,68.8,64.0,57.6,89,64,45,30.04,29.90,32,14,32,0.00
2013-5-30,88.3,78.4,67.9,71.7,68.6,65.5,95,73,56,29.99,29.87,48,18,48,0.21
2013-5-31,81.1,74.2,68.0,74.5,70.3,66.2,96,88,76,29.96,29.82,40,17,40,0.59
2013-6-1,77.6,72.9,63.7,71.8,68.0,61.9,95,85,72,29.93,29.84,36,18,36,2.21
2013-6-30,75.7,68.8,65.6,69.4,65.9,63.6,96,91,71,29.82,29.75,26,7,26,0.56
2013-7-1,73.3,67.5,64.2,67.1,64.9,62.7,96,92,77,29.89,29.78,24,10,24,0.11
2013-7-2,76.2,68.2,63.4,67.7,64.0,60.8,96,87,70,30.02,29.85,21,9,21,0.01
2013-7-3,81.8,70.2,63.1,69.0,64.3,60.8,94,82,60,30.09,30.00,12,4,12,0.00
2013-7-4,84.9,75.8,63.5,73.5,68.8,62.0,96,80,63,30.06,29.98,24,8,24,0.00
2013-7-5,84.9,75.2,69.2,72.4,68.9,66.7,93,82,63,30.08,29.99,14,4,14,0.00
2013-7-6,88.6,74.8,65.0,73.8,68.9,63.1,95,83,56,30.07,29.94,22,7,22,0.13
2013-7-7,91.1,76.4,63.0,75.6,68.9,61.5,97,80,52,30.08,30.00,19,8,19,0.00
2013-7-8,93.8,81.3,70.2,77.3,72.7,68.0,95,77,52,30.12,30.02,20,11,20,0.00
2013-7-9,96.0,85.0,74.4,78.4,74.5,71.0,90,72,51,30.08,29.94,21,13,21,0.00
2013-7-10,91.5,83.8,76.3,78.6,74.3,72.3,89,74,54,29.97,29.86,19,10,22,0.00
2013-7-11,87.2,78.9,68.5,76.0,68.9,60.0,95,73,49,29.99,29.89,22,10,22,0.00
2013-7-12,86.2,74.4,64.2,65.8,62.0,58.4,88,67,43,30.05,29.97,20,10,20,0.00
2013-7-13,86.5,74.5,60.4,68.2,63.4,58.4,96,71,46,30.04,29.96,18,8,18,0.00
2013-7-14,90.5,76.9,66.0,74.8,70.3,63.6,95,82,55,30.11,30.00,27,9,27,0.23
2013-7-15,89.8,79.5,71.1,78.2,73.7,69.7,97,84,65,30.21,30.09,22,9,22,0.00
2013-7-16,95.4,81.8,70.5,77.7,73.3,69.0,96,78,51,30.28,30.20,11,5,16,0.00
2013-7-17,96.0,84.5,72.8,78.2,74.6,71.0,96,75,51,30.29,30.15,12,5,12,0.00
2013-7-18,95.8,83.8,74.8,79.9,75.4,72.4,96,77,56,30.18,30.01,19,6,19,0.00
2013-7-19,95.2,82.5,70.8,77.0,72.9,69.0,96,75,51,30.05,29.89,19,9,19,0.00
2013-7-20,94.8,82.3,70.5,77.0,73.0,68.6,95,75,51,29.95,29.79,29,12,29,0.42
2013-7-21,88.4,74.7,69.0,77.8,71.5,67.4,96,90,66,29.93,29.83,30,7,30,1.08
2013-7-22,88.5,77.9,70.8,76.5,73.2,69.6,97,86,65,29.87,29.78,20,10,20,0.56
2013-7-23,92.2,80.3,70.5,77.1,72.8,67.7,95,79,59,29.89,29.74,27,12,34,0.01
2013-7-24,84.2,74.4,64.9,70.2,66.0,60.3,95,77,55,29.97,29.81,21,9,21,0.01
2013-7-25,83.8,71.2,59.9,66.0,62.0,58.2,95,75,50,30.06,29.96,16,7,16,0.00
2013-7-26,83.8,72.0,59.6,68.7,63.9,57.9,96,78,49,30.06,29.94,12,4,12,0.01
2013-7-27,83.7,72.9,63.8,70.8,65.8,56.3,95,80,54,29.98,29.87,20,9,20,0.01
2013-7-28,81.7,69.1,54.1,61.3,57.2,52.1,96,69,41,30.06,29.96,16,7,16,0.00
2013-7-29,80.7,70.6,58.9,66.4,62.3,56.7,95,77,54,30.16,30.04,13,4,13,0.00
2013-7-30,73.0,68.4,64.9,71.5,66.7,62.5,96,94,89,30.14,30.01,23,6,23,0.33
2013-7-31,86.1,76.3,69.7,76.8,72.0,68.2,96,87,66,30.02,29.91,20,6,20,0.00
2013-8-1,88.3,76.0,66.2,73.3,68.3,63.8,96,79,51,30.04,29.96,17,8,17,0.00
2013-8-2,87.5,75.2,62.1,71.9,67.0,60.4,96,78,52,30.02,29.92,16,8,16,0.00
2013-8-3,84.0,75.2,70.4,77.0,71.9,67.5,96,90,76,30.05,29.90,22,8,22,0.10
2013-8-4,84.8,74.3,65.7,71.3,65.7,62.3,96,76,52,30.13,30.03,18,9,18,0.00
2013-8-5,78.4,69.5,64.8,68.4,64.9,-99.9,95,86,67,30.07,29.91,19,3,19,0.03
2013-8-6,83.0,75.6,69.1,76.0,71.6,67.0,95,88,74,29.95,29.86,15,6,16,0.00
2013-8-7,86.0,75.8,70.0,75.8,72.2,67.8,96,89,69,29.93,29.83,24,9,28,0.03
2013-8-8,83.5,76.0,70.7,76.6,73.0,69.2,96,91,74,29.96,29.85,21,4,21,0.04
2013-8-9,87.8,76.7,71.5,78.1,73.3,70.2,96,90,69,30.02,29.89,36,4,36,0.54
2013-8-10,82.2,75.3,71.9,75.0,72.1,70.2,96,90,73,30.10,30.00,12,4,12,0.02
2013-8-11,88.3,78.8,70.4,75.6,72.1,68.9,96,81,58,30.11,30.01,15,4,15,0.00
2013-8-12,86.6,76.4,70.0,78.3,73.1,68.2,96,90,73,30.04,29.88,31,8,31,2.56
2013-8-13,83.5,75.3,67.2,73.4,69.1,62.6,96,82,56,30.04,29.90,22,9,22,0.00
2013-8-14,74.8,66.1,58.0,62.9,56.1,52.8,91,71,51,30.13,30.02,21,11,21,0.00
2013-8-15,77.3,66.0,55.0,60.9,57.0,52.7,93,74,52,30.11,30.02,18,9,18,0.00
2013-8-16,78.2,68.9,59.1,65.6,61.1,56.5,92,77,58,30.09,30.02,22,9,22,0.00
2013-8-17,76.8,68.7,64.9,70.1,65.0,61.3,95,88,76,30.14,30.04,19,8,19,0.55
2013-8-18,79.5,70.0,64.1,71.1,66.7,62.6,96,90,73,30.14,30.05,12,3,12,0.00
2013-8-19,86.0,73.8,65.0,72.7,68.3,63.5,96,84,60,30.11,30.00,12,4,12,0.00
2013-8-20,88.0,76.7,66.9,75.4,70.6,65.3,96,83,59,30.09,30.00,14,6,14,0.00
2013-8-21,91.1,78.4,68.5,75.1,71.1,67.0,96,80,53,30.13,30.03,18,7,18,0.00
2013-8-22,91.7,80.5,69.9,76.3,72.3,67.5,95,78,53,30.10,29.98,18,7,18,0.00
2013-8-23,89.5,78.7,71.3,78.4,73.1,69.3,95,84,64,30.06,29.98,21,7,21,0.03
2013-8-24,88.1,78.1,70.0,75.2,71.1,67.9,96,80,58,30.17,30.05,18,9,18,0.00
2013-8-25,92.3,78.1,67.1,77.2,71.7,65.3,95,82,55,30.25,30.16,19,9,19,0.00
2013-8-26,89.5,79.9,72.9,75.5,72.2,68.5,91,78,59,30.24,30.09,21,13,21,0.00
2013-8-27,89.3,79.8,71.8,76.2,72.0,67.3,88,77,63,30.10,30.00,22,13,22,0.00
2013-8-28,92.8,81.9,72.3,75.2,71.6,68.4,90,73,48,30.04,29.97,19,11,19,0.00
2013-8-29,94.9,83.9,73.4,77.1,72.7,69.0,87,70,50,30.01,29.92,19,10,19,0.00
2013-8-30,96.3,85.0,74.0,78.5,74.0,70.3,89,71,47,29.96,29.83,17,10,17,0.00
2013-8-31,95.3,85.7,77.9,78.6,75.6,72.6,87,73,54,29.87,29.74,23,12,23,0.00
2013-9-1,84.9,77.8,69.9,75.0,72.0,67.5,94,83,68,29.86,29.74,37,14,37,0.83
2013-9-2,88.2,77.9,69.1,77.8,70.7,64.5,94,80,55,29.90,29.81,22,10,22,0.00
2013-9-3,85.2,73.4,64.3,68.1,64.4,61.0,93,75,48,30.04,29.90,17,8,17,0.00
2013-9-4,84.3,71.6,60.5,66.8,62.6,58.5,95,75,48,30.14,30.03,16,7,16,0.00
2013-9-5,85.0,71.6,59.3,69.4,64.0,57.6,96,79,54,30.18,30.10,14,4,14,0.00
2013-9-6,90.3,76.0,65.7,71.2,67.5,63.6,96,77,48,30.16,30.03,15,5,15,0.00
2013-9-7,90.5,77.2,64.7,72.3,68.1,62.9,96,76,53,30.06,29.93,20,8,20,0.00
2013-9-8,90.4,79.2,68.1,76.5,71.5,65.7,94,78,59,29.97,29.88,22,9,22,0.00
2013-9-9,94.9,82.8,73.3,75.7,73.7,71.0,94,76,52,29.99,29.91,19,11,19,0.00
2013-9-10,94.9,82.3,75.4,79.4,73.3,71.2,89,75,50,30.12,29.99,18,10,20,0.00
2013-9-11,94.4,78.4,69.9,76.9,71.2,66.9,95,80,54,30.14,30.03,24,8,28,0.00
2013-9-12,89.4,78.8,67.7,75.1,70.8,63.4,91,78,58,30.03,29.91,20,10,25,0.00
2013-9-13,76.3,67.3,58.1,63.9,56.3,52.8,86,69,48,30.05,29.97,22,11,22,0.00
2013-9-14,74.2,61.9,51.5,54.9,51.0,48.1,93,70,44,30.14,30.03,20,9,20,0.00
2013-9-15,83.4,66.4,50.5,60.2,55.0,48.6,95,70,40,30.10,30.03,20,9,20,0.00
2013-9-16,76.0,68.7,62.7,65.9,61.9,57.6,87,79,69,30.18,30.06,16,9,16,0.00
2013-9-17,83.5,70.6,61.9,68.1,63.4,59.2,91,79,57,30.19,30.06,17,8,17,0.00
2013-9-18,88.1,75.1,66.2,73.3,68.8,63.6,94,82,60,30.11,29.99,21,10,23,0.00
2013-9-19,89.3,77.8,70.9,75.1,70.8,67.7,90,80,61,30.06,29.93,24,13,24,0.00
2013-9-20,79.3,72.6,68.2,71.9,68.2,66.0,96,86,76,29.95,29.81,33,10,33,0.62
2013-9-21,74.8,64.3,54.9,67.6,55.9,50.6,96,76,47,29.91,29.80,24,12,24,0.01
2013-9-22,75.3,62.1,51.2,58.5,53.4,49.5,95,76,48,29.98,29.89,18,9,18,0.00
2013-9-23,77.8,63.5,51.9,60.9,55.7,49.9,95,78,52,30.01,29.91,17,10,17,0.01
2013-9-24,74.0,49.0,57.0,68.2,24.9,-99.9,96,72,81,29.95,29.80,17,-218,17,0.02
2013-9-25,81.8,69.4,61.0,69.9,65.2,59.6,96,87,62,29.86,29.78,13,6,13,0.03
2013-9-26,83.6,70.8,62.6,69.6,64.6,61.1,96,83,55,30.01,29.84,15,7,15,0.01
2013-9-27,83.2,68.1,57.9,64.4,59.8,52.7,96,77,38,30.11,30.00,16,7,16,0.01
2013-9-28,83.7,70.5,60.9,63.3,60.4,57.8,94,73,45,30.12,30.00,28,14,28,0.00
2013-9-29,68.8,64.3,62.4,62.2,60.9,58.4,95,89,70,30.04,29.96,23,9,23,0.01
2013-9-30,68.9,65.7,63.4,65.2,63.7,61.9,96,93,87,30.00,29.93,19,7,19,0.01
2013-10-1,77.4,69.2,63.5,70.7,66.4,61.9,95,91,79,30.06,29.97,17,9,17,0.00
2013-10-2,81.2,72.4,67.5,73.7,69.2,66.0,96,90,74,30.08,30.00,22,10,22,0.01
2013-10-3,86.9,74.3,67.2,70.3,67.4,65.7,96,81,54,30.04,29.92,25,14,25,0.02
2013-10-4,85.2,74.7,67.4,75.0,70.0,65.3,94,86,67,30.04,29.95,22,11,22,0.00
2013-10-5,81.2,73.3,69.3,73.4,70.2,67.5,96,90,72,30.00,29.83,36,11,36,0.09
2013-10-31,69.8,65.3,56.9,65.7,62.1,54.9,94,89,84,29.66,29.44,46,22,46,0.26
2013-11-1,68.8,57.3,46.8,54.9,49.7,44.0,94,78,50,29.85,29.65,26,13,26,0.01
2013-11-2,59.0,48.4,38.7,47.2,42.4,36.6,93,81,57,30.19,29.84,26,12,26,0.00
2013-11-3,59.7,44.6,34.0,42.9,37.2,32.5,96,78,43,30.33,30.18,21,8,21,0.00
2013-11-4,60.3,50.5,40.4,50.1,44.0,38.0,93,80,54,30.31,30.21,27,11,27,0.00
2013-11-5,64.5,57.3,48.9,52.6,47.8,43.8,91,71,56,30.33,30.12,29,11,29,0.00
2013-11-6,59.1,53.6,41.6,56.4,47.5,-99.9,94,83,62,30.23,30.00,36,7,36,0.13
2013-11-7,54.1,37.7,35.9,39.0,20.6,-99.9,92,69,45,30.39,30.23,21,-98,21,0.00
2013-11-8,55.4,19.8,31.7,40.7,-31.7,-99.9,95,43,47,30.40,30.21,18,-487,18,0.00
2013-11-9,-200.0,0.0,200.0,-99.9,-99.9,-99.9,0,0,100,30.23,30.11,0,-999,0,0.00
2013-11-10,62.5,41.4,35.9,42.1,17.8,-99.9,95,58,33,30.39,30.22,14,-126,17,0.00
2013-11-11,64.1,50.5,35.0,44.9,37.2,32.1,93,64,37,30.31,30.14,30,12,30,0.00
2013-11-12,45.5,35.7,27.4,39.0,25.7,20.3,88,68,42,30.70,30.30,33,16,33,0.00
2013-11-13,47.4,32.3,20.8,27.2,22.8,18.3,93,70,39,30.72,30.42,21,8,21,0.00
2013-11-14,56.6,41.7,28.2,27.8,23.5,20.8,78,51,28,30.42,30.14,27,16,27,0.00
2013-11-15,51.2,47.2,39.4,49.4,38.4,24.2,95,73,46,30.15,30.02,25,10,25,0.01
2013-11-16,66.1,59.7,51.3,62.0,55.7,49.3,93,87,79,30.03,29.77,40,18,40,0.00
2013-11-17,73.4,65.5,51.2,68.3,57.9,34.6,95,78,44,29.94,29.53,48,23,48,0.68
2013-11-18,61.6,48.5,35.4,43.7,36.0,29.8,92,64,35,30.28,29.94,27,12,27,0.00
2013-11-19,48.7,40.3,33.5,35.2,30.7,28.8,89,69,47,30.34,30.20,22,10,22,0.00
2013-11-20,58.2,43.6,31.5,40.9,34.2,28.4,89,71,46,30.22,30.09,22,10,22,0.00
2013-11-21,62.5,54.5,45.1,55.1,48.1,37.2,94,80,67,30.22,30.13,26,11,26,0.11
2013-11-22,58.0,48.8,40.4,56.4,46.3,36.2,95,91,84,30.42,30.15,27,14,27,0.16
2013-11-23,45.4,32.3,26.1,36.4,9.7,-99.9,86,58,38,30.66,30.41,31,-118,31,0.00
2013-11-24,-200.0,0.0,200.0,-99.9,-99.9,-99.9,0,0,100,30.72,30.43,0,-999,0,0.00
2013-11-25,35.5,9.9,33.0,31.5,-61.4,-99.9,92,26,78,30.44,30.19,15,-703,15,0.00
2013-11-26,37.7,18.7,33.5,34.1,-28.1,-99.9,93,50,83,30.19,29.99,16,-452,16,0.03
2013-11-27,22.5,3.3,20.5,12.7,-82.6,-99.9,69,10,61,30.39,30.13,24,-842,25,0.00
2013-11-28,-200.0,0.0,200.0,-99.9,-99.9,-99.9,0,0,100,30.46,30.30,0,-999,0,0.00
2013-11-29,39.8,4.1,34.3,29.3,-85.6,-99.9,75,8,66,30.57,30.44,15,-886,15,0.00
2013-11-30,29.7,0.3,29.7,26.0,-98.6,-99.9,86,1,86,30.43,30.20,18,-988,18,0.00
2013-12-1,-200.0,0.0,200.0,-99.9,-99.9,-99.9,0,0,100,30.20,29.90,0,-999,0,0.00
2013-12-2,48.2,0.7,47.6,45.7,-97.9,-99.9,91,1,90,29.90,29.69,18,-985,18,0.00
2013-12-3,63.8,50.2,45.6,53.5,40.7,-99.9,95,81,65,29.76,29.68,21,-42,21,0.00
2013-12-4,53.7,4.3,50.2,52.3,-87.2,-99.9,95,8,94,29.79,29.64,18,-914,18,0.00
2013-12-5,30.6,1.3,29.9,28.8,-94.5,-99.9,93,4,91,30.21,29.78,17,-957,17,0.00
2013-12-6,30.8,1.0,30.5,29.0,-95.8,-99.9,93,3,92,30.50,30.15,12,-967,12,0.00
2013-12-7,-200.0,0.0,200.0,-99.9,-99.9,-99.9,0,0,100,30.62,30.35,0,-999,0,0.00
2013-12-8,30.2,0.8,30.0,28.4,-96.3,-99.9,93,3,92,30.36,30.00,13,-971,13,0.00
2013-12-9,28.7,0.4,28.6,26.4,-98.1,-99.9,91,1,91,30.30,30.11,2,-985,2,0.00
2013-12-10,-200.0,0.0,200.0,-99.9,-99.9,-99.9,0,0,100,30.37,30.21,0,-999,0,0.00
2013-12-11,-200.0,0.0,200.0,-99.9,-99.9,-99.9,0,0,100,30.60,30.34,0,-999,0,0.00
2013-12-12,-200.0,0.0,200.0,-99.9,-99.9,-99.9,0,0,100,30.61,30.35,0,-999,0,0.00
2013-12-13,-200.0,0.0,200.0,-99.9,-99.9,-99.9,0,0,100,30.35,29.95,0,-999,0,0.00
2013-12-14,-200.0,0.0,200.0,-99.9,-99.9,-99.9,0,0,100,30.08,29.78,0,-999,0,0.00
2013-12-15,-200.0,0.0,200.0,-99.9,-99.9,-99.9,0,0,100,30.22,30.08,0,-999,0,0.00
2013-12-16,-200.0,0.0,200.0,-99.9,-99.9,-99.9,0,0,100,30.11,30.02,0,-999,0,0.00
2013-12-17,-200.0,0.0,200.0,-99.9,-99.9,-99.9,0,0,100,30.28,30.06,0,-999,0,0.00
2013-12-18,-200.0,0.0,200.0,-99.9,-99.9,-99.9,0,0,100,30.32,30.06,0,-999,0,0.00
2013-12-19,-200.0,0.0,200.0,-99.9,-99.9,-99.9,0,0,100,30.09,29.90,0,-999,0,0.00
2013-12-20,-200.0,0.0,200.0,-99.9,-99.9,-99.9,0,0,100,29.91,29.78,0,-999,0,0.00
2013-12-21,-200.0,0.0,200.0,-99.9,-99.9,-99.9,0,0,100,29.79,29.45,0,-999,0,0.00
2013-12-22,-200.0,0.0,200.0,-99.9,-99.9,-99.9,0,0,100,30.21,29.63,0,-999,0,0.00
2013-12-23,-200.0,0.0,200.0,-99.9,-99.9,-99.9,0,0,100,30.48,30.20,0,-999,0,0.00
2013-12-24,-200.0,0.0,200.0,-99.9,-99.9,-99.9,0,0,100,30.61,30.39,0,-999,0,0.00
2013-12-25,-200.0,0.0,200.0,-99.9,-99.9,-99.9,0,0,100,30.40,30.25,0,-999,0,0.00
2013-12-26,-200.0,0.0,200.0,-99.9,-99.9,-99.9,0,0,100,30.42,30.29,0,-999,0,0.00
2013-12-27,-200.0,0.0,200.0,-99.9,-99.9,-99.9,0,0,100,30.43,30.31,0,-999,0,0.00
2013-12-28,-200.0,0.0,200.0,-99.9,-99.9,-99.9,0,0,100,30.32,29.94,0,-999,0,0.00
2013-12-29,-200.0,0.0,200.0,-99.9,-99.9,-99.9,0,0,100,30.20,29.90,0,-999,0,0.00
2013-12-30,-200.0,0.0,200.0,-99.9,-99.9,-99.9,0,0,100,30.30,30.19,0,-999,0,0.00
2013-12-31,-200.0,0.0,200.0,-99.9,-99.9,-99.9,0,0,100,30.43,30.26,0,-999,0,0.00
2014-1-1,-200.0,0.0,200.0,-99.9,-99.9,-99.9,0,0,100,30.26,29.93,0,-999,0,0.00
2014-1-2,-200.0,0.0,200.0,-99.9,-99.9,-99.9,0,0,100,30.43,29.89,0,-999,0,0.00